sensor_id;sensor_type;location;lat;lon;timestamp;P1;durP1;ratioP1;P2;durP2;ratioP2
84286;SDS011;74445;55.252;61.092;2023-12-28T01:09:19;7.50;;;3.50;;
84286;SDS011;74445;55.252;61.092;2023-12-28T01:11:46;6.75;;;3.53;;
84286;SDS011;74445;55.252;61.092;2023-12-28T01:14:12;9.07;;;4.13;;
84286;SDS011;74445;55.252;61.092;2023-12-28T01:16:39;5.55;;;3.15;;
84286;SDS011;74445;55.252;61.092;2023-12-28T01:19:05;6.57;;;3.60;;
84286;SDS011;74445;55.252;61.092;2023-12-28T01:21:32;5.75;;;3.33;;
84286;SDS011;74445;55.252;61.092;2023-12-28T01:23:58;6.82;;;3.25;;
84286;SDS011;74445;55.252;61.092;2023-12-28T01:26:26;5.38;;;3.35;;
84286;SDS011;74445;55.252;61.092;2023-12-28T01:28:53;7.15;;;3.28;;
84286;SDS011;74445;55.252;61.092;2023-12-28T01:31:20;5.75;;;3.28;;
84286;SDS011;74445;55.252;61.092;2023-12-28T01:33:46;6.78;;;3.38;;
84286;SDS011;74445;55.252;61.092;2023-12-28T01:36:19;4.32;;;2.58;;
84286;SDS011;74445;55.252;61.092;2023-12-28T01:38:46;6.55;;;3.10;;
84286;SDS011;74445;55.252;61.092;2023-12-28T01:41:13;6.45;;;3.35;;
84286;SDS011;74445;55.252;61.092;2023-12-28T01:43:42;7.25;;;3.80;;
84286;SDS011;74445;55.252;61.092;2023-12-28T01:46:10;7.00;;;3.70;;
84286;SDS011;74445;55.252;61.092;2023-12-28T01:48:40;8.73;;;3.63;;
84286;SDS011;74445;55.252;61.092;2023-12-28T01:51:08;9.10;;;4.57;;
84286;SDS011;74445;55.252;61.092;2023-12-28T01:53:35;8.68;;;4.80;;
84286;SDS011;74445;55.252;61.092;2023-12-28T01:56:01;7.03;;;4.05;;
84286;SDS011;74445;55.252;61.092;2023-12-28T01:58:29;6.18;;;3.65;;
84286;SDS011;74445;55.252;61.092;2023-12-28T02:01:01;8.13;;;4.05;;
84286;SDS011;74445;55.252;61.092;2023-12-28T02:03:27;7.65;;;3.92;;
84286;SDS011;74445;55.252;61.092;2023-12-28T02:05:54;5.05;;;3.03;;
84286;SDS011;74445;55.252;61.092;2023-12-28T02:08:22;7.13;;;3.70;;
84286;SDS011;74445;55.252;61.092;2023-12-28T02:10:48;10.75;;;4.80;;
84286;SDS011;74445;55.252;61.092;2023-12-28T02:13:14;7.18;;;3.30;;
84286;SDS011;74445;55.252;61.092;2023-12-28T02:15:41;7.88;;;4.50;;
84286;SDS011;74445;55.252;61.092;2023-12-28T02:18:11;7.88;;;4.05;;
84286;SDS011;74445;55.252;61.092;2023-12-28T02:20:41;6.32;;;3.88;;
84286;SDS011;74445;55.252;61.092;2023-12-28T02:23:09;12.52;;;5.45;;
84286;SDS011;74445;55.252;61.092;2023-12-28T02:25:37;8.43;;;4.38;;
84286;SDS011;74445;55.252;61.092;2023-12-28T02:28:04;8.90;;;4.15;;
84286;SDS011;74445;55.252;61.092;2023-12-28T02:30:31;8.82;;;4.82;;
84286;SDS011;74445;55.252;61.092;2023-12-28T02:33:01;8.65;;;3.92;;
84286;SDS011;74445;55.252;61.092;2023-12-28T02:35:33;10.00;;;4.82;;
84286;SDS011;74445;55.252;61.092;2023-12-28T02:38:05;7.82;;;4.38;;
84286;SDS011;74445;55.252;61.092;2023-12-28T02:40:35;7.45;;;4.30;;
84286;SDS011;74445;55.252;61.092;2023-12-28T02:43:05;11.07;;;4.90;;
84286;SDS011;74445;55.252;61.092;2023-12-28T02:45:32;8.63;;;4.53;;
84286;SDS011;74445;55.252;61.092;2023-12-28T02:47:59;7.97;;;3.90;;
84286;SDS011;74445;55.252;61.092;2023-12-28T02:50:25;7.50;;;4.00;;
84286;SDS011;74445;55.252;61.092;2023-12-28T02:52:52;6.47;;;3.25;;
84286;SDS011;74445;55.252;61.092;2023-12-28T02:55:18;6.28;;;3.00;;
84286;SDS011;74445;55.252;61.092;2023-12-28T02:57:46;6.72;;;3.80;;
84286;SDS011;74445;55.252;61.092;2023-12-28T03:00:13;6.70;;;3.45;;
84286;SDS011;74445;55.252;61.092;2023-12-28T03:02:40;7.30;;;4.00;;
84286;SDS011;74445;55.252;61.092;2023-12-28T03:05:06;7.45;;;3.75;;
84286;SDS011;74445;55.252;61.092;2023-12-28T03:07:33;9.05;;;3.92;;
84286;SDS011;74445;55.252;61.092;2023-12-28T03:10:00;6.80;;;3.42;;
84286;SDS011;74445;55.252;61.092;2023-12-28T03:12:31;8.40;;;3.83;;
84286;SDS011;74445;55.252;61.092;2023-12-28T03:14:59;6.80;;;3.75;;
84286;SDS011;74445;55.252;61.092;2023-12-28T03:17:26;7.90;;;4.03;;
84286;SDS011;74445;55.252;61.092;2023-12-28T03:19:54;7.30;;;3.65;;
84286;SDS011;74445;55.252;61.092;2023-12-28T03:22:21;8.18;;;3.90;;
84286;SDS011;74445;55.252;61.092;2023-12-28T03:24:47;8.75;;;3.53;;
84286;SDS011;74445;55.252;61.092;2023-12-28T03:27:14;5.43;;;2.78;;
84286;SDS011;74445;55.252;61.092;2023-12-28T03:29:40;4.90;;;2.47;;
84286;SDS011;74445;55.252;61.092;2023-12-28T03:32:09;8.25;;;3.97;;
84286;SDS011;74445;55.252;61.092;2023-12-28T03:34:36;6.47;;;3.42;;
84286;SDS011;74445;55.252;61.092;2023-12-28T03:37:03;6.70;;;3.20;;
84286;SDS011;74445;55.252;61.092;2023-12-28T03:39:30;8.73;;;4.35;;
84286;SDS011;74445;55.252;61.092;2023-12-28T03:41:56;8.80;;;4.72;;
84286;SDS011;74445;55.252;61.092;2023-12-28T03:44:23;7.72;;;4.78;;
84286;SDS011;74445;55.252;61.092;2023-12-28T03:46:50;9.48;;;5.30;;
84286;SDS011;74445;55.252;61.092;2023-12-28T03:49:18;7.18;;;3.97;;
84286;SDS011;74445;55.252;61.092;2023-12-28T03:51:46;7.00;;;3.22;;
84286;SDS011;74445;55.252;61.092;2023-12-28T03:54:15;10.45;;;5.25;;
84286;SDS011;74445;55.252;61.092;2023-12-28T03:56:42;8.57;;;4.78;;
84286;SDS011;74445;55.252;61.092;2023-12-28T03:59:09;11.15;;;4.53;;
84286;SDS011;74445;55.252;61.092;2023-12-28T04:01:36;14.50;;;5.35;;
84286;SDS011;74445;55.252;61.092;2023-12-28T04:04:03;12.60;;;4.85;;
84286;SDS011;74445;55.252;61.092;2023-12-28T04:06:31;9.35;;;4.60;;
84286;SDS011;74445;55.252;61.092;2023-12-28T04:08:58;7.35;;;4.00;;
84286;SDS011;74445;55.252;61.092;2023-12-28T04:11:24;11.13;;;4.47;;
84286;SDS011;74445;55.252;61.092;2023-12-28T04:13:51;8.55;;;3.78;;
84286;SDS011;74445;55.252;61.092;2023-12-28T04:16:18;8.93;;;4.43;;
84286;SDS011;74445;55.252;61.092;2023-12-28T04:18:44;9.48;;;4.55;;
84286;SDS011;74445;55.252;61.092;2023-12-28T04:21:11;15.57;;;5.18;;
84286;SDS011;74445;55.252;61.092;2023-12-28T04:23:40;10.85;;;4.72;;
84286;SDS011;74445;55.252;61.092;2023-12-28T04:26:07;7.75;;;3.63;;
84286;SDS011;74445;55.252;61.092;2023-12-28T04:28:33;12.82;;;6.18;;
84286;SDS011;74445;55.252;61.092;2023-12-28T04:31:02;12.63;;;5.53;;
84286;SDS011;74445;55.252;61.092;2023-12-28T04:33:29;12.02;;;5.35;;
84286;SDS011;74445;55.252;61.092;2023-12-28T04:35:56;10.73;;;6.10;;
84286;SDS011;74445;55.252;61.092;2023-12-28T04:38:23;9.02;;;4.75;;
84286;SDS011;74445;55.252;61.092;2023-12-28T04:40:51;13.55;;;5.68;;
84286;SDS011;74445;55.252;61.092;2023-12-28T04:43:18;10.75;;;5.20;;
84286;SDS011;74445;55.252;61.092;2023-12-28T04:45:44;11.13;;;5.43;;
84286;SDS011;74445;55.252;61.092;2023-12-28T04:48:11;9.93;;;4.90;;
84286;SDS011;74445;55.252;61.092;2023-12-28T04:50:37;13.18;;;4.28;;
84286;SDS011;74445;55.252;61.092;2023-12-28T04:53:03;11.18;;;5.32;;
84286;SDS011;74445;55.252;61.092;2023-12-28T04:55:30;18.00;;;7.00;;
84286;SDS011;74445;55.252;61.092;2023-12-28T04:57:58;12.43;;;5.30;;
84286;SDS011;74445;55.252;61.092;2023-12-28T05:00:24;13.93;;;6.10;;
84286;SDS011;74445;55.252;61.092;2023-12-28T05:02:50;13.85;;;6.22;;
84286;SDS011;74445;55.252;61.092;2023-12-28T05:05:17;11.60;;;5.38;;
84286;SDS011;74445;55.252;61.092;2023-12-28T05:07:43;13.48;;;5.25;;
84286;SDS011;74445;55.252;61.092;2023-12-28T05:10:10;16.48;;;5.82;;
84286;SDS011;74445;55.252;61.092;2023-12-28T05:12:36;18.08;;;6.38;;
84286;SDS011;74445;55.252;61.092;2023-12-28T05:15:05;15.07;;;5.50;;
84286;SDS011;74445;55.252;61.092;2023-12-28T05:17:32;13.38;;;6.53;;
84286;SDS011;74445;55.252;61.092;2023-12-28T05:19:58;12.15;;;6.15;;
84286;SDS011;74445;55.252;61.092;2023-12-28T05:22:24;12.43;;;5.93;;
84286;SDS011;74445;55.252;61.092;2023-12-28T05:24:51;13.38;;;5.07;;
84286;SDS011;74445;55.252;61.092;2023-12-28T05:27:17;13.45;;;5.40;;
84286;SDS011;74445;55.252;61.092;2023-12-28T05:29:44;13.68;;;6.00;;
84286;SDS011;74445;55.252;61.092;2023-12-28T05:32:12;12.80;;;5.70;;
84286;SDS011;74445;55.252;61.092;2023-12-28T05:34:38;10.90;;;6.00;;
84286;SDS011;74445;55.252;61.092;2023-12-28T05:37:04;10.63;;;5.65;;
84286;SDS011;74445;55.252;61.092;2023-12-28T05:39:31;12.40;;;5.78;;
84286;SDS011;74445;55.252;61.092;2023-12-28T05:41:57;16.85;;;7.65;;
84286;SDS011;74445;55.252;61.092;2023-12-28T05:44:24;11.45;;;5.28;;
84286;SDS011;74445;55.252;61.092;2023-12-28T05:46:50;10.65;;;5.85;;
84286;SDS011;74445;55.252;61.092;2023-12-28T05:49:19;8.95;;;4.00;;
84286;SDS011;74445;55.252;61.092;2023-12-28T05:51:46;11.98;;;5.20;;
84286;SDS011;74445;55.252;61.092;2023-12-28T05:54:12;13.10;;;5.90;;
84286;SDS011;74445;55.252;61.092;2023-12-28T05:56:38;12.57;;;5.32;;
84286;SDS011;74445;55.252;61.092;2023-12-28T05:59:05;11.30;;;5.65;;
84286;SDS011;74445;55.252;61.092;2023-12-28T06:01:32;13.07;;;5.25;;
84286;SDS011;74445;55.252;61.092;2023-12-28T06:04:06;11.90;;;5.53;;
84286;SDS011;74445;55.252;61.092;2023-12-28T06:06:34;10.93;;;4.90;;
84286;SDS011;74445;55.252;61.092;2023-12-28T06:09:02;9.07;;;5.00;;
84286;SDS011;74445;55.252;61.092;2023-12-28T06:11:32;11.45;;;4.97;;
84286;SDS011;74445;55.252;61.092;2023-12-28T06:13:58;11.10;;;5.53;;
84286;SDS011;74445;55.252;61.092;2023-12-28T06:16:24;7.68;;;4.50;;
84286;SDS011;74445;55.252;61.092;2023-12-28T06:18:51;11.02;;;4.80;;
84286;SDS011;74445;55.252;61.092;2023-12-28T06:21:18;9.73;;;4.65;;
84286;SDS011;74445;55.252;61.092;2023-12-28T06:23:46;7.40;;;4.47;;
84286;SDS011;74445;55.252;61.092;2023-12-28T06:26:12;9.05;;;4.80;;
84286;SDS011;74445;55.252;61.092;2023-12-28T06:28:39;11.20;;;5.40;;
84286;SDS011;74445;55.252;61.092;2023-12-28T06:31:05;11.15;;;5.50;;
84286;SDS011;74445;55.252;61.092;2023-12-28T06:33:32;11.13;;;4.82;;
84286;SDS011;74445;55.252;61.092;2023-12-28T06:36:04;6.82;;;3.97;;
84286;SDS011;74445;55.252;61.092;2023-12-28T06:38:31;10.43;;;4.60;;
84286;SDS011;74445;55.252;61.092;2023-12-28T06:41:00;8.57;;;4.03;;
84286;SDS011;74445;55.252;61.092;2023-12-28T06:43:26;9.25;;;4.93;;
84286;SDS011;74445;55.252;61.092;2023-12-28T06:45:53;7.82;;;4.35;;
84286;SDS011;74445;55.252;61.092;2023-12-28T06:48:20;6.05;;;3.60;;
84286;SDS011;74445;55.252;61.092;2023-12-28T06:50:46;9.65;;;4.63;;
84286;SDS011;74445;55.252;61.092;2023-12-28T06:53:13;10.35;;;4.97;;
84286;SDS011;74445;55.252;61.092;2023-12-28T06:55:39;7.60;;;4.30;;
84286;SDS011;74445;55.252;61.092;2023-12-28T06:58:07;11.40;;;4.20;;
84286;SDS011;74445;55.252;61.092;2023-12-28T07:00:34;6.60;;;4.03;;
84286;SDS011;74445;55.252;61.092;2023-12-28T07:03:00;9.45;;;4.20;;
84286;SDS011;74445;55.252;61.092;2023-12-28T07:05:27;6.88;;;4.35;;
84286;SDS011;74445;55.252;61.092;2023-12-28T07:07:53;7.15;;;4.10;;
84286;SDS011;74445;55.252;61.092;2023-12-28T07:10:20;7.20;;;4.30;;
84286;SDS011;74445;55.252;61.092;2023-12-28T07:12:46;8.77;;;4.85;;
84286;SDS011;74445;55.252;61.092;2023-12-28T07:15:14;7.13;;;3.88;;
84286;SDS011;74445;55.252;61.092;2023-12-28T07:17:40;9.45;;;4.10;;
84286;SDS011;74445;55.252;61.092;2023-12-28T07:20:07;8.82;;;4.20;;
84286;SDS011;74445;55.252;61.092;2023-12-28T07:22:37;13.98;;;4.43;;
84286;SDS011;74445;55.252;61.092;2023-12-28T07:25:04;7.82;;;4.60;;
84286;SDS011;74445;55.252;61.092;2023-12-28T07:27:31;7.72;;;4.55;;
84286;SDS011;74445;55.252;61.092;2023-12-28T07:29:58;7.40;;;3.80;;
84286;SDS011;74445;55.252;61.092;2023-12-28T07:32:26;9.82;;;3.78;;
84286;SDS011;74445;55.252;61.092;2023-12-28T07:34:54;7.50;;;3.90;;
84286;SDS011;74445;55.252;61.092;2023-12-28T07:37:20;7.45;;;3.63;;
84286;SDS011;74445;55.252;61.092;2023-12-28T07:39:47;7.57;;;3.58;;
84286;SDS011;74445;55.252;61.092;2023-12-28T07:42:13;7.97;;;3.50;;
84286;SDS011;74445;55.252;61.092;2023-12-28T07:44:40;5.72;;;3.30;;
84286;SDS011;74445;55.252;61.092;2023-12-28T07:47:07;7.25;;;3.63;;
84286;SDS011;74445;55.252;61.092;2023-12-28T07:49:35;6.55;;;3.45;;
84286;SDS011;74445;55.252;61.092;2023-12-28T07:52:01;5.53;;;3.28;;
84286;SDS011;74445;55.252;61.092;2023-12-28T07:54:28;8.00;;;3.88;;
84286;SDS011;74445;55.252;61.092;2023-12-28T07:56:55;6.43;;;3.90;;
84286;SDS011;74445;55.252;61.092;2023-12-28T07:59:21;4.57;;;2.53;;
84286;SDS011;74445;55.252;61.092;2023-12-28T08:01:48;6.80;;;3.50;;
84286;SDS011;74445;55.252;61.092;2023-12-28T08:04:14;6.20;;;3.20;;
84286;SDS011;74445;55.252;61.092;2023-12-28T08:06:42;4.70;;;3.05;;
84286;SDS011;74445;55.252;61.092;2023-12-28T08:09:09;7.45;;;3.65;;
84286;SDS011;74445;55.252;61.092;2023-12-28T08:11:36;5.38;;;3.22;;
84286;SDS011;74445;55.252;61.092;2023-12-28T08:14:02;5.28;;;3.35;;
84286;SDS011;74445;55.252;61.092;2023-12-28T08:16:29;8.77;;;3.72;;
84286;SDS011;74445;55.252;61.092;2023-12-28T08:18:55;8.77;;;3.40;;
84286;SDS011;74445;55.252;61.092;2023-12-28T08:21:22;5.03;;;3.13;;
84286;SDS011;74445;55.252;61.092;2023-12-28T08:23:50;7.07;;;3.42;;
84286;SDS011;74445;55.252;61.092;2023-12-28T08:26:17;8.18;;;3.38;;
84286;SDS011;74445;55.252;61.092;2023-12-28T08:28:43;8.43;;;3.58;;
84286;SDS011;74445;55.252;61.092;2023-12-28T08:31:10;6.30;;;4.13;;
84286;SDS011;74445;55.252;61.092;2023-12-28T08:33:36;5.78;;;3.13;;
84286;SDS011;74445;55.252;61.092;2023-12-28T08:36:06;5.72;;;3.17;;
84286;SDS011;74445;55.252;61.092;2023-12-28T08:38:33;5.35;;;3.25;;
84286;SDS011;74445;55.252;61.092;2023-12-28T08:41:01;8.05;;;3.40;;
84286;SDS011;74445;55.252;61.092;2023-12-28T08:43:29;6.57;;;3.08;;
84286;SDS011;74445;55.252;61.092;2023-12-28T08:45:55;4.43;;;2.67;;
84286;SDS011;74445;55.252;61.092;2023-12-28T08:48:22;6.63;;;3.60;;
84286;SDS011;74445;55.252;61.092;2023-12-28T08:50:49;4.22;;;2.78;;
84286;SDS011;74445;55.252;61.092;2023-12-28T08:53:15;7.85;;;3.38;;
84286;SDS011;74445;55.252;61.092;2023-12-28T08:55:42;8.57;;;3.50;;
84286;SDS011;74445;55.252;61.092;2023-12-28T08:58:10;5.88;;;3.42;;
84286;SDS011;74445;55.252;61.092;2023-12-28T09:00:36;6.85;;;3.00;;
84286;SDS011;74445;55.252;61.092;2023-12-28T09:03:03;5.43;;;3.08;;
84286;SDS011;74445;55.252;61.092;2023-12-28T09:05:30;6.10;;;4.28;;
84286;SDS011;74445;55.252;61.092;2023-12-28T09:07:56;6.80;;;4.00;;
84286;SDS011;74445;55.252;61.092;2023-12-28T09:10:23;8.68;;;3.50;;
84286;SDS011;74445;55.252;61.092;2023-12-28T09:12:50;9.20;;;3.45;;
84286;SDS011;74445;55.252;61.092;2023-12-28T09:15:18;7.50;;;3.40;;
84286;SDS011;74445;55.252;61.092;2023-12-28T09:17:46;9.55;;;3.58;;
84286;SDS011;74445;55.252;61.092;2023-12-28T09:20:12;8.65;;;3.38;;
84286;SDS011;74445;55.252;61.092;2023-12-28T09:22:39;8.50;;;3.28;;
84286;SDS011;74445;55.252;61.092;2023-12-28T09:25:06;9.32;;;3.70;;
84286;SDS011;74445;55.252;61.092;2023-12-28T09:27:33;7.53;;;3.80;;
84286;SDS011;74445;55.252;61.092;2023-12-28T09:29:59;9.80;;;4.15;;
84286;SDS011;74445;55.252;61.092;2023-12-28T09:32:27;8.85;;;4.22;;
84286;SDS011;74445;55.252;61.092;2023-12-28T09:34:54;9.10;;;4.97;;
84286;SDS011;74445;55.252;61.092;2023-12-28T09:37:20;9.32;;;4.32;;
84286;SDS011;74445;55.252;61.092;2023-12-28T09:39:47;9.73;;;4.72;;
84286;SDS011;74445;55.252;61.092;2023-12-28T09:42:15;14.55;;;5.28;;
84286;SDS011;74445;55.252;61.092;2023-12-28T09:44:48;19.23;;;6.45;;
84286;SDS011;74445;55.252;61.092;2023-12-28T09:47:14;23.38;;;6.35;;
84286;SDS011;74445;55.252;61.092;2023-12-28T09:49:44;19.05;;;6.60;;
84286;SDS011;74445;55.252;61.092;2023-12-28T09:52:12;17.90;;;6.68;;
84286;SDS011;74445;55.252;61.092;2023-12-28T09:54:39;13.98;;;6.30;;
84286;SDS011;74445;55.252;61.092;2023-12-28T09:57:05;17.48;;;6.88;;
84286;SDS011;74445;55.252;61.092;2023-12-28T09:59:32;15.02;;;6.63;;
84286;SDS011;74445;55.252;61.092;2023-12-28T10:01:59;17.10;;;6.65;;
84286;SDS011;74445;55.252;61.092;2023-12-28T10:04:27;22.35;;;6.53;;
84286;SDS011;74445;55.252;61.092;2023-12-28T10:06:56;10.75;;;5.32;;
84286;SDS011;74445;55.252;61.092;2023-12-28T10:09:23;13.02;;;6.35;;
84286;SDS011;74445;55.252;61.092;2023-12-28T10:11:52;17.25;;;6.60;;
84286;SDS011;74445;55.252;61.092;2023-12-28T10:14:19;17.73;;;7.70;;
84286;SDS011;74445;55.252;61.092;2023-12-28T10:16:47;11.88;;;6.43;;
84286;SDS011;74445;55.252;61.092;2023-12-28T10:19:14;13.05;;;6.03;;
84286;SDS011;74445;55.252;61.092;2023-12-28T10:21:40;13.10;;;6.10;;
84286;SDS011;74445;55.252;61.092;2023-12-28T10:24:11;14.27;;;5.90;;
84286;SDS011;74445;55.252;61.092;2023-12-28T10:26:38;15.05;;;6.60;;
84286;SDS011;74445;55.252;61.092;2023-12-28T10:29:05;14.48;;;7.03;;
84286;SDS011;74445;55.252;61.092;2023-12-28T10:31:31;16.85;;;6.93;;
84286;SDS011;74445;55.252;61.092;2023-12-28T10:33:58;15.10;;;6.93;;
84286;SDS011;74445;55.252;61.092;2023-12-28T10:36:28;17.90;;;7.43;;
84286;SDS011;74445;55.252;61.092;2023-12-28T10:38:55;17.73;;;7.70;;
84286;SDS011;74445;55.252;61.092;2023-12-28T10:41:26;12.63;;;6.90;;
84286;SDS011;74445;55.252;61.092;2023-12-28T10:43:58;14.43;;;6.97;;
84286;SDS011;74445;55.252;61.092;2023-12-28T10:46:30;18.92;;;7.22;;
84286;SDS011;74445;55.252;61.092;2023-12-28T10:48:58;19.88;;;8.05;;
84286;SDS011;74445;55.252;61.092;2023-12-28T10:51:31;16.58;;;7.45;;
84286;SDS011;74445;55.252;61.092;2023-12-28T10:54:04;20.30;;;8.02;;
84286;SDS011;74445;55.252;61.092;2023-12-28T10:56:41;17.40;;;7.10;;
84286;SDS011;74445;55.252;61.092;2023-12-28T10:59:14;17.60;;;7.20;;
84286;SDS011;74445;55.252;61.092;2023-12-28T11:01:46;18.23;;;7.90;;
84286;SDS011;74445;55.252;61.092;2023-12-28T11:04:17;19.52;;;7.45;;
84286;SDS011;74445;55.252;61.092;2023-12-28T11:06:50;20.67;;;7.97;;
84286;SDS011;74445;55.252;61.092;2023-12-28T11:09:18;34.25;;;10.07;;
84286;SDS011;74445;55.252;61.092;2023-12-28T11:11:47;27.35;;;10.55;;
84286;SDS011;74445;55.252;61.092;2023-12-28T11:14:15;18.13;;;8.13;;
84286;SDS011;74445;55.252;61.092;2023-12-28T11:16:43;23.98;;;12.25;;
84286;SDS011;74445;55.252;61.092;2023-12-28T11:19:10;21.48;;;9.60;;
84286;SDS011;74445;55.252;61.092;2023-12-28T11:21:38;14.00;;;7.82;;
84286;SDS011;74445;55.252;61.092;2023-12-28T11:24:05;19.58;;;8.88;;
84286;SDS011;74445;55.252;61.092;2023-12-28T11:26:32;16.13;;;7.45;;
84286;SDS011;74445;55.252;61.092;2023-12-28T11:29:03;18.83;;;7.97;;
84286;SDS011;74445;55.252;61.092;2023-12-28T11:31:31;21.75;;;11.27;;
84286;SDS011;74445;55.252;61.092;2023-12-28T11:34:01;21.13;;;9.60;;
84286;SDS011;74445;55.252;61.092;2023-12-28T11:36:33;19.80;;;9.70;;
84286;SDS011;74445;55.252;61.092;2023-12-28T11:39:04;20.35;;;8.50;;
84286;SDS011;74445;55.252;61.092;2023-12-28T11:41:32;18.05;;;9.60;;
84286;SDS011;74445;55.252;61.092;2023-12-28T11:44:01;27.83;;;9.38;;
84286;SDS011;74445;55.252;61.092;2023-12-28T11:46:31;20.65;;;9.05;;
84286;SDS011;74445;55.252;61.092;2023-12-28T11:49:04;27.23;;;10.07;;
84286;SDS011;74445;55.252;61.092;2023-12-28T11:51:31;28.27;;;9.75;;
84286;SDS011;74445;55.252;61.092;2023-12-28T11:53:58;25.90;;;12.38;;
84286;SDS011;74445;55.252;61.092;2023-12-28T11:56:26;33.90;;;16.52;;
84286;SDS011;74445;55.252;61.092;2023-12-28T11:58:52;61.60;;;28.52;;
84286;SDS011;74445;55.252;61.092;2023-12-28T12:01:20;57.60;;;21.58;;
84286;SDS011;74445;55.252;61.092;2023-12-28T12:03:47;62.25;;;23.45;;
84286;SDS011;74445;55.252;61.092;2023-12-28T12:06:14;58.42;;;22.10;;
84286;SDS011;74445;55.252;61.092;2023-12-28T12:08:44;45.83;;;18.67;;
84286;SDS011;74445;55.252;61.092;2023-12-28T12:11:12;48.20;;;19.10;;
84286;SDS011;74445;55.252;61.092;2023-12-28T12:13:39;52.05;;;22.10;;
84286;SDS011;74445;55.252;61.092;2023-12-28T12:16:06;52.90;;;20.77;;
84286;SDS011;74445;55.252;61.092;2023-12-28T12:18:35;44.25;;;19.02;;
84286;SDS011;74445;55.252;61.092;2023-12-28T12:21:02;50.92;;;22.42;;
84286;SDS011;74445;55.252;61.092;2023-12-28T12:23:29;58.33;;;22.88;;
84286;SDS011;74445;55.252;61.092;2023-12-28T12:25:55;73.53;;;23.95;;
84286;SDS011;74445;55.252;61.092;2023-12-28T12:28:22;60.58;;;25.88;;
84286;SDS011;74445;55.252;61.092;2023-12-28T12:30:52;78.97;;;28.10;;
84286;SDS011;74445;55.252;61.092;2023-12-28T12:33:21;72.95;;;26.88;;
84286;SDS011;74445;55.252;61.092;2023-12-28T12:35:50;73.65;;;30.13;;
84286;SDS011;74445;55.252;61.092;2023-12-28T12:38:16;60.08;;;24.08;;
84286;SDS011;74445;55.252;61.092;2023-12-28T12:40:43;64.47;;;26.67;;
84286;SDS011;74445;55.252;61.092;2023-12-28T12:43:10;73.47;;;27.73;;
84286;SDS011;74445;55.252;61.092;2023-12-28T12:45:36;70.40;;;26.90;;
84286;SDS011;74445;55.252;61.092;2023-12-28T12:48:04;77.43;;;27.50;;
84286;SDS011;74445;55.252;61.092;2023-12-28T12:50:31;77.05;;;28.35;;
84286;SDS011;74445;55.252;61.092;2023-12-28T12:53:00;71.32;;;26.42;;
84286;SDS011;74445;55.252;61.092;2023-12-28T12:55:26;64.47;;;24.85;;
84286;SDS011;74445;55.252;61.092;2023-12-28T12:57:53;75.70;;;25.90;;
84286;SDS011;74445;55.252;61.092;2023-12-28T13:00:21;75.50;;;26.95;;
84286;SDS011;74445;55.252;61.092;2023-12-28T13:02:49;67.60;;;23.88;;
84286;SDS011;74445;55.252;61.092;2023-12-28T13:05:17;82.63;;;27.70;;
84286;SDS011;74445;55.252;61.092;2023-12-28T13:07:44;79.55;;;29.25;;
84286;SDS011;74445;55.252;61.092;2023-12-28T13:10:12;87.15;;;34.25;;
84286;SDS011;74445;55.252;61.092;2023-12-28T13:12:38;87.70;;;32.20;;
84286;SDS011;74445;55.252;61.092;2023-12-28T13:15:05;93.72;;;31.33;;
84286;SDS011;74445;55.252;61.092;2023-12-28T13:17:35;83.15;;;29.15;;
84286;SDS011;74445;55.252;61.092;2023-12-28T13:20:02;88.95;;;31.00;;
84286;SDS011;74445;55.252;61.092;2023-12-28T13:22:30;84.05;;;30.95;;
84286;SDS011;74445;55.252;61.092;2023-12-28T13:24:56;93.13;;;35.58;;
84286;SDS011;74445;55.252;61.092;2023-12-28T13:27:24;97.70;;;31.67;;
84286;SDS011;74445;55.252;61.092;2023-12-28T13:29:50;85.55;;;33.28;;
84286;SDS011;74445;55.252;61.092;2023-12-28T13:32:17;121.25;;;38.50;;
84286;SDS011;74445;55.252;61.092;2023-12-28T13:34:43;125.30;;;45.92;;
84286;SDS011;74445;55.252;61.092;2023-12-28T13:37:10;150.32;;;47.95;;
84286;SDS011;74445;55.252;61.092;2023-12-28T13:39:36;127.65;;;42.50;;
84286;SDS011;74445;55.252;61.092;2023-12-28T13:42:04;145.25;;;43.40;;
84286;SDS011;74445;55.252;61.092;2023-12-28T13:44:34;159.25;;;53.97;;
84286;SDS011;74445;55.252;61.092;2023-12-28T13:47:03;123.60;;;42.03;;
84286;SDS011;74445;55.252;61.092;2023-12-28T13:49:33;101.72;;;35.90;;
84286;SDS011;74445;55.252;61.092;2023-12-28T13:51:59;100.72;;;36.20;;
84286;SDS011;74445;55.252;61.092;2023-12-28T13:54:26;115.10;;;37.00;;
84286;SDS011;74445;55.252;61.092;2023-12-28T13:56:53;94.80;;;30.45;;
84286;SDS011;74445;55.252;61.092;2023-12-28T13:59:23;96.85;;;36.40;;
84286;SDS011;74445;55.252;61.092;2023-12-28T14:01:51;112.47;;;37.33;;
84286;SDS011;74445;55.252;61.092;2023-12-28T14:04:17;89.10;;;35.20;;
84286;SDS011;74445;55.252;61.092;2023-12-28T14:06:44;75.20;;;26.45;;
84286;SDS011;74445;55.252;61.092;2023-12-28T14:09:11;64.82;;;24.20;;
84286;SDS011;74445;55.252;61.092;2023-12-28T14:11:38;76.22;;;27.50;;
84286;SDS011;74445;55.252;61.092;2023-12-28T14:14:04;79.38;;;28.75;;
84286;SDS011;74445;55.252;61.092;2023-12-28T14:16:30;102.95;;;35.20;;
84286;SDS011;74445;55.252;61.092;2023-12-28T14:18:58;97.75;;;32.60;;
84286;SDS011;74445;55.252;61.092;2023-12-28T14:21:25;81.35;;;29.92;;
84286;SDS011;74445;55.252;61.092;2023-12-28T14:23:52;77.65;;;29.17;;
84286;SDS011;74445;55.252;61.092;2023-12-28T14:26:19;68.38;;;27.35;;
84286;SDS011;74445;55.252;61.092;2023-12-28T14:28:47;68.57;;;25.40;;
84286;SDS011;74445;55.252;61.092;2023-12-28T14:31:15;69.43;;;24.48;;
84286;SDS011;74445;55.252;61.092;2023-12-28T14:33:42;66.28;;;27.58;;
84286;SDS011;74445;55.252;61.092;2023-12-28T14:36:19;78.10;;;29.75;;
84286;SDS011;74445;55.252;61.092;2023-12-28T14:38:53;59.78;;;23.95;;
84286;SDS011;74445;55.252;61.092;2023-12-28T14:41:19;64.43;;;26.05;;
84286;SDS011;74445;55.252;61.092;2023-12-28T14:43:46;57.80;;;25.15;;
84286;SDS011;74445;55.252;61.092;2023-12-28T14:46:12;53.78;;;23.40;;
84286;SDS011;74445;55.252;61.092;2023-12-28T14:48:39;47.63;;;20.33;;
84286;SDS011;74445;55.252;61.092;2023-12-28T14:51:05;46.53;;;20.52;;
84286;SDS011;74445;55.252;61.092;2023-12-28T14:53:33;37.70;;;17.45;;
84286;SDS011;74445;55.252;61.092;2023-12-28T14:56:00;38.10;;;14.98;;
84286;SDS011;74445;55.252;61.092;2023-12-28T14:58:26;36.53;;;16.77;;
84286;SDS011;74445;55.252;61.092;2023-12-28T15:00:53;26.45;;;11.65;;
84286;SDS011;74445;55.252;61.092;2023-12-28T15:03:20;29.27;;;12.82;;
84286;SDS011;74445;55.252;61.092;2023-12-28T15:05:46;23.40;;;11.73;;
84286;SDS011;74445;55.252;61.092;2023-12-28T15:08:13;23.00;;;11.10;;
84286;SDS011;74445;55.252;61.092;2023-12-28T15:10:41;21.00;;;10.73;;
84286;SDS011;74445;55.252;61.092;2023-12-28T15:13:08;39.63;;;19.92;;
84286;SDS011;74445;55.252;61.092;2023-12-28T15:15:36;21.20;;;10.70;;
84286;SDS011;74445;55.252;61.092;2023-12-28T15:18:03;21.95;;;11.90;;
84286;SDS011;74445;55.252;61.092;2023-12-28T15:20:30;27.05;;;11.68;;
84286;SDS011;74445;55.252;61.092;2023-12-28T15:22:57;27.38;;;13.90;;
84286;SDS011;74445;55.252;61.092;2023-12-28T15:25:24;19.67;;;10.43;;
84286;SDS011;74445;55.252;61.092;2023-12-28T15:27:55;22.98;;;12.32;;
84286;SDS011;74445;55.252;61.092;2023-12-28T15:30:22;24.75;;;11.05;;
84286;SDS011;74445;55.252;61.092;2023-12-28T15:32:49;21.20;;;11.07;;